Time;durP1;ratioP1;P1;durP2;ratioP2;P2;SDS_P1;SDS_P2;PMS_P1;PMS_P2;Temp;Humidity;BMP_temperature;BMP_pressure;BME280_temperature;BME280_humidity;BME280_pressure;Samples;Min_cycle;Max_cycle;Signal;HPM_P1;HPM_P2
2023/06/27 00:11:14;;;;;;;11.93;8.63;;;;;;;19.25;76.02;99820.03;30489260;28;97840;-65
2023/06/27 00:26:15;;;;;;;8.90;8.00;;;;;;;19.14;76.60;99833.56;30488178;28;97370;-66
2023/06/27 00:41:15;;;;;;;8.73;6.72;;;;;;;18.91;76.79;99841.41;30505185;28;96866;-66
2023/06/27 00:56:16;;;;;;;8.48;6.90;;;;;;;18.67;77.11;99853.19;30507010;28;97317;-65
2023/06/27 01:11:29;;;;;;;9.23;5.97;;;;;;;18.39;77.14;99868.16;30505044;28;97244;-65
2023/06/27 01:26:30;;;;;;;12.23;6.43;;;;;;;18.06;77.35;99872.94;30504556;28;96835;-72
2023/06/27 01:41:35;;;;;;;10.87;6.70;;;;;;;17.68;77.68;99881.25;30502625;28;97554;-65
2023/06/27 01:56:35;;;;;;;7.90;6.57;;;;;;;17.46;78.63;99897.03;30501147;28;96663;-68
2023/06/27 02:11:35;;;;;;;11.13;8.85;;;;;;;17.50;78.96;99890.97;30499257;28;96963;-65
2023/06/27 02:26:36;;;;;;;13.05;9.65;;;;;;;17.52;79.48;99894.28;30498610;28;108329;-65
2023/06/27 02:41:36;;;;;;;11.77;9.27;;;;;;;17.54;79.80;99900.25;30496624;28;96716;-67
2023/06/27 02:56:36;;;;;;;12.68;9.13;;;;;;;17.63;80.03;99913.41;30493924;28;114877;-68
2023/06/27 03:11:37;;;;;;;16.08;10.38;;;;;;;17.63;80.21;99919.63;30493477;28;112929;-67
2023/06/27 03:26:37;;;;;;;12.10;9.40;;;;;;;17.53;80.56;99936.28;30491561;28;96805;-65
2023/06/27 03:41:37;;;;;;;7.25;4.97;;;;;;;17.20;78.84;99942.81;30490697;28;111635;-65
2023/06/27 03:56:38;;;;;;;7.35;6.43;;;;;;;17.15;78.65;99950.72;30488982;28;96959;-65
2023/06/27 04:11:38;;;;;;;12.75;7.55;;;;;;;17.17;78.58;99948.63;30487722;28;96849;-65
2023/06/27 04:26:38;;;;;;;11.05;6.13;;;;;;;17.29;78.42;99958.69;30486534;28;96728;-65
2023/06/27 04:41:39;;;;;;;8.15;6.10;;;;;;;17.39;78.09;99984.06;30484338;28;97326;-65
2023/06/27 04:56:39;;;;;;;9.23;6.32;;;;;;;17.85;77.78;99991.94;30482782;28;115315;-68
2023/06/27 05:11:40;;;;;;;11.82;6.43;;;;;;;18.14;76.79;100008.44;30416678;28;97616;-75
2023/06/27 05:26:40;;;;;;;6.15;3.90;;;;;;;18.60;74.93;99999.81;30469808;28;97326;-71
2023/06/27 05:41:40;;;;;;;11.63;4.40;;;;;;;18.98;72.49;100019.44;30464460;28;98409;-67
2023/06/27 05:56:41;;;;;;;12.45;4.60;;;;;;;19.51;70.38;100025.88;30464138;28;113452;-65
2023/06/27 06:11:41;;;;;;;6.53;3.38;;;;;;;19.57;68.89;100041.19;30458150;28;97621;-67
2023/06/27 06:26:41;;;;;;;12.48;3.75;;;;;;;19.50;66.14;100056.66;30455755;28;97792;-66
2023/06/27 06:41:42;;;;;;;5.45;2.97;;;;;;;20.00;65.33;100060.00;30454517;28;97794;-67
2023/06/27 06:56:42;;;;;;;7.77;2.60;;;;;;;20.11;63.00;100061.91;30447678;28;106202;-66
2023/06/27 07:11:42;;;;;;;3.27;2.50;;;;;;;20.95;60.13;100056.06;30454899;28;108167;-69
2023/06/27 07:26:43;;;;;;;4.73;1.97;;;;;;;21.10;57.80;100065.50;30444408;28;97605;-65
2023/06/27 07:41:43;;;;;;;5.93;2.20;;;;;;;21.74;55.21;100072.59;30449338;28;103175;-65
2023/06/27 07:56:43;;;;;;;2.77;1.60;;;;;;;22.57;51.92;100074.59;30445677;28;99116;-68
2023/06/27 08:11:44;;;;;;;5.85;2.33;;;;;;;22.95;47.56;100070.94;30442979;28;97500;-71
2023/06/27 08:26:46;;;;;;;;;;;;;;;23.25;45.41;100055.22;30483705;28;107846;-69
2023/06/27 08:41:46;;;;;;;4.40;1.80;;;;;;;23.20;45.14;100061.44;30486304;28;97333;-66
2023/06/27 08:56:47;;;;;;;4.88;1.50;;;;;;;23.07;43.72;100059.91;30493894;28;97529;-69
2023/06/27 09:11:50;;;;;;;9.25;2.70;;;;;;;23.42;43.15;100046.94;30504331;28;96881;-65
2023/06/27 09:26:50;;;;;;;2.93;1.33;;;;;;;24.21;41.48;100056.22;30495805;28;97107;-66
2023/06/27 09:41:51;;;;;;;3.72;1.73;;;;;;;24.47;39.36;100042.72;30496094;28;97117;-68
2023/06/27 09:56:52;;;;;;;8.15;1.90;;;;;;;24.51;42.03;100062.88;30455817;28;96753;-64
2023/06/27 10:11:53;;;;;;;5.40;1.40;;;;;;;24.73;41.86;100097.28;30373690;28;97055;-69
2023/06/27 10:26:56;;;;;;;3.30;1.20;;;;;;;23.95;43.62;100050.63;30372570;28;97347;-66
2023/06/27 10:42:15;;;;;;;4.40;1.33;;;;;;;24.81;41.08;100034.94;30374754;28;97652;-70
2023/06/27 10:57:16;;;;;;;3.77;1.50;;;;;;;21.21;43.89;100021.28;30370357;28;97278;-67
2023/06/27 11:12:17;;;;;;;2.50;1.20;;;;;;;21.78;45.33;100027.66;30369467;28;96797;-70
2023/06/27 11:27:19;;;;;;;1.60;1.10;;;;;;;24.12;44.50;100006.88;30368428;28;97210;-68
2023/06/27 11:42:35;;;;;;;2.97;1.40;;;;;;;24.12;43.33;99996.00;30365127;28;97616;-65
2023/06/27 11:57:52;;;;;;;4.90;1.47;;;;;;;24.67;37.07;99991.06;30361983;28;96853;-70
2023/06/27 12:12:53;;;;;;;5.30;1.60;;;;;;;24.67;34.57;99972.00;30361697;28;97143;-69
2023/06/27 12:27:53;;;;;;;4.68;1.70;;;;;;;25.33;34.82;99973.16;30363896;28;98519;-66
2023/06/27 12:42:54;;;;;;;2.15;0.88;;;;;;;22.87;34.88;99998.06;30377656;28;114976;-67
2023/06/27 12:57:54;;;;;;;;;;;;;;;22.70;36.75;100008.19;30360488;28;115437;-67
2023/06/27 13:12:54;;;;;;;3.50;1.10;;;;;;;24.15;34.07;99989.22;30455266;28;97140;-67
2023/06/27 13:27:57;;;;;;;5.70;1.30;;;;;;;23.45;34.59;99975.75;30503927;28;96844;-67
2023/06/27 13:42:58;;;;;;;3.40;1.40;;;;;;;22.36;40.89;100030.06;30502184;28;97583;-69
2023/06/27 13:57:58;;;;;;;4.43;1.80;;;;;;;23.43;41.89;100024.13;30502167;28;97859;-67
2023/06/27 14:12:59;;;;;;;;;;;;;;;22.89;42.02;100030.41;30499527;28;105020;-68
2023/06/27 14:27:59;;;;;;;2.63;0.73;;;;;;;22.61;41.80;100030.38;30499000;28;96790;-67
2023/06/27 14:43:00;;;;;;;4.00;0.80;;;;;;;21.80;42.33;100012.78;30496498;28;97085;-72
2023/06/27 14:58:00;;;;;;;2.93;0.63;;;;;;;20.94;42.99;99994.84;30494448;28;103393;-70
2023/06/27 15:13:00;;;;;;;3.90;1.10;;;;;;;20.51;42.95;100000.78;30492404;28;104181;-67
2023/06/27 15:28:08;;;;;;;2.57;1.47;;;;;;;20.70;42.37;100009.56;31079428;28;96716;-64
2023/06/27 15:43:09;;;;;;;2.80;1.53;;;;;;;20.27;43.52;100017.88;31073312;28;97421;-64
2023/06/27 15:58:09;;;;;;;2.23;0.73;;;;;;;20.43;43.80;99991.13;31063003;28;96961;-64
2023/06/27 16:13:10;;;;;;;2.23;0.80;;;;;;;20.70;43.42;99998.72;30973344;28;97100;-64
2023/06/27 16:28:10;;;;;;;1.83;0.80;;;;;;;20.28;43.88;99984.38;30920621;28;97226;-69
2023/06/27 16:43:11;;;;;;;1.43;0.70;;;;;;;19.85;44.70;99985.63;30856042;28;97872;-66
2023/06/27 16:58:11;;;;;;;1.95;0.90;;;;;;;19.24;46.36;99991.19;30854169;28;97829;-64
2023/06/27 17:13:13;;;;;;;5.47;1.00;;;;;;;18.78;47.97;99990.84;30852841;28;96671;-64
2023/06/27 17:28:13;;;;;;;1.97;1.00;;;;;;;18.51;49.58;99998.47;30851436;28;96874;-66
2023/06/27 17:43:13;;;;;;;4.05;1.10;;;;;;;17.83;50.90;100007.50;30849403;28;96717;-66
2023/06/27 17:58:14;;;;;;;3.92;1.15;;;;;;;17.41;51.85;100002.69;30842673;28;97079;-69
2023/06/27 18:13:14;;;;;;;1.88;0.70;;;;;;;17.09;53.75;99991.97;30847016;28;108755;-66
2023/06/27 18:28:15;;;;;;;2.28;0.90;;;;;;;16.73;55.34;99961.97;30854226;28;96879;-69
2023/06/27 18:43:15;;;;;;;3.08;0.57;;;;;;;16.70;54.29;99950.81;30852065;28;97049;-65
2023/06/27 18:58:15;;;;;;;2.97;0.90;;;;;;;16.61;53.36;99970.91;30850402;28;99357;-65
2023/06/27 19:13:17;;;;;;;3.05;0.88;;;;;;;15.82;54.16;99996.00;30851058;28;97397;-67
2023/06/27 19:28:21;;;;;;;2.20;0.80;;;;;;;14.88;57.57;100004.03;30851426;28;97381;-65
2023/06/27 19:43:21;;;;;;;3.03;0.90;;;;;;;14.31;60.24;99994.53;30847826;28;96974;-64
2023/06/27 19:58:21;;;;;;;4.30;1.02;;;;;;;14.12;61.94;99996.91;30782478;28;96614;-66
2023/06/27 20:13:22;;;;;;;4.70;2.28;;;;;;;14.07;63.66;100010.06;30842417;28;97001;-66
2023/06/27 20:28:22;;;;;;;3.53;1.17;;;;;;;14.60;65.84;100014.00;30786330;28;98290;-66
2023/06/27 20:43:22;;;;;;;2.35;1.50;;;;;;;14.72;65.54;100012.44;30733334;28;102729;-66
2023/06/27 20:58:23;;;;;;;4.65;1.98;;;;;;;14.72;66.44;100001.69;30733690;28;98026;-68
2023/06/27 21:13:26;;;;;;;3.20;1.70;;;;;;;14.59;66.49;99996.28;30731810;28;97105;-66
2023/06/27 21:28:26;;;;;;;5.30;1.37;;;;;;;14.34;67.33;99994.97;30841986;28;96948;-67
2023/06/27 21:43:27;;;;;;;3.42;1.40;;;;;;;13.80;67.14;99993.84;30862544;28;97530;-68
2023/06/27 21:58:27;;;;;;;3.22;1.70;;;;;;;13.38;68.02;99995.59;30860888;28;104130;-70
2023/06/27 22:13:27;;;;;;;5.60;1.70;;;;;;;13.02;68.82;99999.16;30859842;28;110041;-69
2023/06/27 22:28:28;;;;;;;3.53;1.67;;;;;;;12.77;69.80;100004.88;30857594;28;96779;-67
2023/06/27 22:43:28;;;;;;;3.97;1.92;;;;;;;12.56;70.82;100004.84;30857424;28;111363;-66
2023/06/27 22:58:28;;;;;;;8.50;2.65;;;;;;;12.40;71.49;100004.03;30856957;28;96675;-68
2023/06/27 23:13:29;;;;;;;9.65;2.85;;;;;;;12.29;72.42;99996.50;30855411;28;96697;-70
2023/06/27 23:28:29;;;;;;;6.07;2.53;;;;;;;12.10;73.37;100004.06;30854242;28;97431;-70
2023/06/27 23:43:29;;;;;;;5.55;2.15;;;;;;;11.99;73.16;99991.19;30866110;28;100758;-69
2023/06/27 23:58:30;;;;;;;2.60;2.10;;;;;;;11.92;73.81;99988.41;30873548;28;109662;-69
